createdAt,value
2022-11-25T06:02:44.674Z,49.20
2022-11-25T06:08:09.885Z,55.55
2022-11-25T06:13:31.756Z,65.93
2022-11-25T06:18:53.224Z,64.32
2022-11-25T06:24:15.629Z,63.45
2022-11-25T06:29:38.981Z,68.15
2022-11-25T06:34:59.761Z,65.05
2022-11-25T06:40:43.822Z,71.72
2022-11-25T06:51:27.115Z,78.72
2022-11-25T06:56:53.665Z,70.55
2022-11-25T07:02:14.936Z,64.32
2022-11-25T07:07:36.244Z,65.32
2022-11-25T07:12:59.427Z,68.20
2022-11-25T07:18:20.191Z,69.28
2022-11-25T07:23:42.300Z,73.05
2022-11-25T07:29:13.909Z,77.55
2022-11-25T07:34:44.266Z,74.35
2022-11-25T07:40:06.104Z,64.30
2022-11-25T07:45:27.059Z,74.97
2022-11-25T07:51:00.484Z,74.80
2022-11-25T07:56:21.853Z,67.20
2022-11-25T08:01:43.735Z,76.20
2022-11-25T08:07:04.735Z,69.32
2022-11-25T08:12:25.691Z,73.47
2022-11-25T08:23:07.693Z,84.28
2022-11-25T08:28:28.779Z,89.43
2022-11-25T08:33:50.566Z,85.43
2022-11-25T08:39:36.396Z,87.60
2022-11-25T08:44:55.382Z,74.90
2022-11-25T08:50:16.247Z,105.40
2022-11-25T08:55:39.040Z,87.75
2022-11-25T09:00:59.800Z,99.30
2022-11-25T09:06:21.073Z,74.80
2022-11-25T09:11:42.632Z,66.78
2022-11-25T09:22:28.474Z,72.25
2022-11-25T09:27:49.333Z,52.28
2022-11-25T09:33:09.999Z,65.38
2022-11-25T09:38:31.062Z,61.10
2022-11-25T09:44:24.351Z,52.53
2022-11-25T09:50:00.507Z,57.38
2022-11-25T09:55:25.456Z,86.00
2022-11-25T10:00:49.931Z,49.55
2022-11-25T10:06:36.907Z,50.22
2022-11-25T10:12:25.146Z,39.03
2022-11-25T10:17:52.117Z,37.67
2022-11-25T10:23:27.795Z,45.75
2022-11-25T10:29:05.844Z,38.70
2022-11-25T10:34:42.180Z,44.80
2022-11-25T10:40:04.106Z,39.92
2022-11-25T10:45:35.622Z,38.55
2022-11-25T10:51:05.584Z,35.65
2022-11-25T10:56:26.659Z,45.88
2022-11-25T11:01:47.656Z,35.28
2022-11-25T11:07:09.510Z,56.88
2022-11-25T11:12:30.762Z,39.22
2022-11-25T11:17:52.039Z,37.97
2022-11-25T11:23:14.414Z,33.83
2022-11-25T11:28:35.076Z,31.08
2022-11-25T11:34:04.369Z,29.88
2022-11-25T11:39:38.300Z,30.80
2022-11-25T11:45:18.116Z,48.92
2022-11-25T11:50:45.858Z,31.60
2022-11-25T11:56:38.044Z,52.85
2022-11-25T12:07:44.405Z,55.28
2022-11-25T12:13:17.512Z,68.88
2022-11-25T12:19:00.805Z,64.60
2022-11-25T12:24:36.964Z,70.50
2022-11-25T12:30:10.389Z,62.60
2022-11-25T12:35:43.582Z,60.05
2022-11-25T12:41:24.965Z,58.75
2022-11-25T12:46:57.789Z,71.07
2022-11-25T12:52:52.843Z,68.22
2022-11-25T12:58:13.667Z,61.63
2022-11-25T13:04:20.932Z,65.18
2022-11-25T13:10:10.937Z,66.22
2022-11-25T13:15:40.049Z,51.42
2022-11-25T13:21:14.682Z,59.40
2022-11-25T13:26:38.066Z,63.30
2022-11-25T13:32:03.161Z,67.30
2022-11-25T13:37:40.747Z,64.38
2022-11-25T13:43:01.988Z,59.13
2022-11-25T13:48:37.109Z,67.57
2022-11-25T13:54:01.685Z,69.72
2022-11-25T13:59:47.733Z,66.30
2022-11-25T14:05:17.962Z,72.50
2022-11-25T14:11:06.490Z,65.57
2022-11-25T14:16:55.521Z,75.72
2022-11-25T14:22:28.423Z,74.95
2022-11-25T14:28:02.338Z,76.88
2022-11-25T14:33:32.743Z,79.72
2022-11-25T14:39:00.689Z,84.35
2022-11-25T14:44:28.885Z,77.05
2022-11-25T14:50:18.894Z,77.78
2022-11-25T14:55:39.648Z,73.20
2022-11-25T15:01:16.766Z,82.65
2022-11-25T15:06:47.655Z,85.00
2022-11-25T15:12:15.534Z,52.88
2022-11-25T15:17:39.403Z,48.65
2022-11-25T15:23:01.473Z,46.40
2022-11-25T15:28:22.502Z,47.10
2022-11-25T15:33:44.148Z,45.40
2022-11-25T15:39:24.381Z,45.28
2022-11-25T15:44:47.749Z,45.80
2022-11-25T15:50:26.416Z,54.03
2022-11-25T15:55:47.353Z,58.67
2022-11-25T16:01:17.362Z,61.95
2022-11-25T16:06:53.213Z,61.05
2022-11-25T16:12:17.927Z,62.13
2022-11-25T16:17:39.288Z,72.20
2022-11-25T16:23:06.973Z,69.38
2022-11-25T16:28:28.437Z,73.55
2022-11-25T16:33:53.067Z,59.50
2022-11-25T16:39:14.341Z,76.65
2022-11-25T16:44:36.353Z,69.18
2022-11-25T16:49:57.053Z,83.53
2022-11-25T16:55:18.636Z,75.32
2022-11-25T17:00:39.337Z,75.03
2022-11-25T17:06:00.306Z,82.47
2022-11-25T17:11:27.710Z,82.03
2022-11-25T17:16:48.651Z,99.82
2022-11-25T17:22:19.023Z,109.40
2022-11-25T17:27:41.372Z,131.90
2022-11-25T17:33:06.411Z,116.85
2022-11-25T17:38:27.071Z,103.47
2022-11-25T17:43:50.285Z,118.22
2022-11-25T17:49:15.534Z,108.68
2022-11-25T17:54:36.626Z,106.55
2022-11-25T17:59:57.759Z,113.50
2022-11-25T18:05:21.629Z,129.93
2022-11-25T18:10:46.349Z,124.50
2022-11-25T18:16:08.363Z,90.75
2022-11-25T18:21:29.179Z,99.28
2022-11-25T18:26:53.063Z,88.03
2022-11-25T18:32:13.835Z,104.03
2022-11-25T18:43:34.905Z,98.93
2022-11-25T18:48:56.407Z,85.28
2022-11-25T18:54:17.538Z,99.70
2022-11-25T18:59:38.355Z,94.57
2022-11-25T19:04:59.178Z,86.78
2022-11-25T19:10:22.634Z,78.78
2022-11-25T19:15:45.371Z,68.72
2022-11-25T19:21:06.632Z,73.60
2022-11-25T19:31:54.036Z,65.68
2022-11-25T19:37:20.643Z,61.55
2022-11-25T19:42:41.994Z,64.72
2022-11-25T19:48:07.667Z,59.85
2022-11-25T19:53:33.514Z,64.60
2022-11-25T19:58:57.248Z,59.35
2022-11-25T20:04:22.213Z,63.58
2022-11-25T20:09:43.835Z,56.60
2022-11-25T20:15:05.117Z,59.17
2022-11-25T20:20:30.667Z,66.40
2022-11-25T20:25:51.652Z,54.08
2022-11-25T20:31:13.978Z,60.08
2022-11-25T20:36:35.029Z,56.90
2022-11-25T20:41:55.756Z,49.80
2022-11-25T20:47:19.554Z,46.20
2022-11-25T20:52:41.195Z,45.55
2022-11-25T20:58:11.294Z,43.67
2022-11-25T21:03:32.240Z,47.05
2022-11-25T21:14:19.768Z,45.70
2022-11-25T21:19:40.738Z,49.95
2022-11-25T21:25:01.766Z,44.15
2022-11-25T21:30:32.456Z,44.28
2022-11-25T21:35:53.721Z,42.75
2022-11-25T21:41:15.062Z,42.42
2022-11-25T21:46:35.883Z,42.55
2022-11-25T21:51:56.656Z,36.13
2022-11-25T21:57:27.202Z,37.47
2022-11-25T22:02:48.628Z,35.63
2022-11-25T22:08:09.467Z,41.28
2022-11-25T22:13:37.917Z,39.58
2022-11-25T22:18:59.666Z,40.83
2022-11-25T22:24:21.559Z,41.15
2022-11-25T22:29:42.811Z,40.63
2022-11-25T22:35:13.999Z,43.03
2022-11-25T22:40:34.927Z,41.17
2022-11-25T22:45:56.440Z,43.63
2022-11-25T22:51:21.267Z,43.92
2022-11-25T22:56:42.415Z,47.83
